sensor_id;sensor_type;location;lat;lon;timestamp;P1;durP1;ratioP1;P2;durP2;ratioP2
21507;SDS011;10915;54.352;9.074;2022-11-15T00:00:54;134.60;;;69.87;;
21507;SDS011;10915;54.352;9.074;2022-11-15T00:03:20;133.43;;;70.40;;
21507;SDS011;10915;54.352;9.074;2022-11-15T05:06:49;88.03;;;51.07;;
21507;SDS011;10915;54.352;9.074;2022-11-15T05:09:29;90.90;;;54.17;;
21507;SDS011;10915;54.352;9.074;2022-11-15T05:11:54;94.63;;;56.67;;
21507;SDS011;10915;54.352;9.074;2022-11-15T05:14:20;96.23;;;56.30;;
21507;SDS011;10915;54.352;9.074;2022-11-15T05:16:46;105.33;;;59.37;;
21507;SDS011;10915;54.352;9.074;2022-11-15T05:19:11;100.73;;;59.10;;
21507;SDS011;10915;54.352;9.074;2022-11-15T05:21:37;99.57;;;56.77;;
21507;SDS011;10915;54.352;9.074;2022-11-15T05:24:03;137.00;;;67.87;;
21507;SDS011;10915;54.352;9.074;2022-11-15T05:26:29;124.30;;;59.20;;
21507;SDS011;10915;54.352;9.074;2022-11-15T05:28:56;129.60;;;63.13;;
21507;SDS011;10915;54.352;9.074;2022-11-15T05:31:23;84.63;;;53.00;;
21507;SDS011;10915;54.352;9.074;2022-11-15T05:33:50;92.20;;;54.73;;
21507;SDS011;10915;54.352;9.074;2022-11-15T05:39:01;87.43;;;53.63;;
21507;SDS011;10915;54.352;9.074;2022-11-15T05:41:30;103.03;;;57.97;;
21507;SDS011;10915;54.352;9.074;2022-11-15T05:43:59;139.07;;;65.33;;
21507;SDS011;10915;54.352;9.074;2022-11-15T05:46:27;147.67;;;70.73;;
21507;SDS011;10915;54.352;9.074;2022-11-15T05:48:54;110.47;;;63.30;;
21507;SDS011;10915;54.352;9.074;2022-11-15T05:51:21;113.83;;;64.13;;
21507;SDS011;10915;54.352;9.074;2022-11-15T05:53:48;119.07;;;68.50;;
21507;SDS011;10915;54.352;9.074;2022-11-15T05:56:16;122.07;;;69.37;;
21507;SDS011;10915;54.352;9.074;2022-11-15T05:58:42;130.00;;;68.70;;
21507;SDS011;10915;54.352;9.074;2022-11-15T06:01:08;132.23;;;70.50;;
21507;SDS011;10915;54.352;9.074;2022-11-15T06:03:34;125.20;;;68.53;;
21507;SDS011;10915;54.352;9.074;2022-11-15T06:06:00;126.87;;;68.70;;
21507;SDS011;10915;54.352;9.074;2022-11-15T06:08:25;134.83;;;69.30;;
21507;SDS011;10915;54.352;9.074;2022-11-15T06:10:51;125.67;;;69.17;;
21507;SDS011;10915;54.352;9.074;2022-11-15T06:13:17;129.30;;;70.17;;
21507;SDS011;10915;54.352;9.074;2022-11-15T06:18:16;126.67;;;67.30;;
21507;SDS011;10915;54.352;9.074;2022-11-15T06:20:42;130.10;;;69.43;;
21507;SDS011;10915;54.352;9.074;2022-11-15T06:23:08;121.77;;;66.47;;
21507;SDS011;10915;54.352;9.074;2022-11-15T06:25:33;117.63;;;63.60;;
21507;SDS011;10915;54.352;9.074;2022-11-15T06:27:59;122.43;;;66.37;;
21507;SDS011;10915;54.352;9.074;2022-11-15T06:30:25;117.90;;;65.37;;
21507;SDS011;10915;54.352;9.074;2022-11-15T06:32:56;112.77;;;64.33;;
21507;SDS011;10915;54.352;9.074;2022-11-15T06:35:27;115.00;;;63.73;;
21507;SDS011;10915;54.352;9.074;2022-11-15T06:37:53;110.67;;;63.50;;
21507;SDS011;10915;54.352;9.074;2022-11-15T06:40:19;119.37;;;65.10;;
21507;SDS011;10915;54.352;9.074;2022-11-15T06:42:45;109.90;;;61.63;;
21507;SDS011;10915;54.352;9.074;2022-11-15T06:45:10;110.63;;;63.47;;
21507;SDS011;10915;54.352;9.074;2022-11-15T06:47:43;116.13;;;62.77;;
21507;SDS011;10915;54.352;9.074;2022-11-15T06:50:12;114.13;;;62.73;;
21507;SDS011;10915;54.352;9.074;2022-11-15T06:52:38;110.23;;;63.57;;
21507;SDS011;10915;54.352;9.074;2022-11-15T06:55:04;99.50;;;59.30;;
21507;SDS011;10915;54.352;9.074;2022-11-15T06:57:30;101.63;;;60.73;;
21507;SDS011;10915;54.352;9.074;2022-11-15T06:59:59;107.37;;;60.83;;
21507;SDS011;10915;54.352;9.074;2022-11-15T07:02:25;106.17;;;60.33;;
21507;SDS011;10915;54.352;9.074;2022-11-15T07:04:51;103.87;;;60.77;;
21507;SDS011;10915;54.352;9.074;2022-11-15T07:07:16;113.57;;;64.47;;
21507;SDS011;10915;54.352;9.074;2022-11-15T07:09:42;96.70;;;57.77;;
21507;SDS011;10915;54.352;9.074;2022-11-15T07:12:08;102.27;;;57.23;;
21507;SDS011;10915;54.352;9.074;2022-11-15T07:14:34;99.60;;;59.17;;
21507;SDS011;10915;54.352;9.074;2022-11-15T07:17:02;97.13;;;57.53;;
21507;SDS011;10915;54.352;9.074;2022-11-15T07:19:29;98.37;;;57.37;;
21507;SDS011;10915;54.352;9.074;2022-11-15T07:21:54;95.20;;;56.70;;
21507;SDS011;10915;54.352;9.074;2022-11-15T07:24:20;100.63;;;58.93;;
21507;SDS011;10915;54.352;9.074;2022-11-15T07:26:46;99.97;;;57.93;;
21507;SDS011;10915;54.352;9.074;2022-11-15T07:29:12;105.50;;;61.10;;
21507;SDS011;10915;54.352;9.074;2022-11-15T07:31:37;106.93;;;59.23;;
21507;SDS011;10915;54.352;9.074;2022-11-15T07:34:03;98.80;;;57.53;;
21507;SDS011;10915;54.352;9.074;2022-11-15T07:36:29;91.77;;;56.60;;
21507;SDS011;10915;54.352;9.074;2022-11-15T07:38:55;101.43;;;58.23;;
21507;SDS011;10915;54.352;9.074;2022-11-15T07:41:20;97.57;;;58.40;;
21507;SDS011;10915;54.352;9.074;2022-11-15T07:43:46;97.50;;;58.00;;
21507;SDS011;10915;54.352;9.074;2022-11-15T07:46:12;94.70;;;56.90;;
21507;SDS011;10915;54.352;9.074;2022-11-15T07:48:40;94.47;;;55.90;;
21507;SDS011;10915;54.352;9.074;2022-11-15T07:51:06;102.37;;;58.10;;
21507;SDS011;10915;54.352;9.074;2022-11-15T07:53:32;98.03;;;56.73;;
21507;SDS011;10915;54.352;9.074;2022-11-15T07:55:58;95.53;;;55.80;;
21507;SDS011;10915;54.352;9.074;2022-11-15T07:58:23;93.73;;;54.47;;
21507;SDS011;10915;54.352;9.074;2022-11-15T08:00:49;93.27;;;57.50;;
21507;SDS011;10915;54.352;9.074;2022-11-15T08:03:16;86.70;;;53.70;;
21507;SDS011;10915;54.352;9.074;2022-11-15T08:05:42;87.20;;;55.07;;
21507;SDS011;10915;54.352;9.074;2022-11-15T08:08:09;87.40;;;53.47;;
21507;SDS011;10915;54.352;9.074;2022-11-15T08:10:36;83.67;;;53.30;;
21507;SDS011;10915;54.352;9.074;2022-11-15T08:13:06;83.47;;;52.77;;
21507;SDS011;10915;54.352;9.074;2022-11-15T08:15:33;81.93;;;50.97;;
21507;SDS011;10915;54.352;9.074;2022-11-15T08:18:01;77.63;;;50.57;;
21507;SDS011;10915;54.352;9.074;2022-11-15T08:20:29;82.50;;;52.47;;
21507;SDS011;10915;54.352;9.074;2022-11-15T08:22:59;87.00;;;51.47;;
21507;SDS011;10915;54.352;9.074;2022-11-15T08:25:27;76.00;;;48.57;;
21507;SDS011;10915;54.352;9.074;2022-11-15T08:27:58;73.27;;;51.57;;
21507;SDS011;10915;54.352;9.074;2022-11-15T08:30:25;75.43;;;49.33;;
21507;SDS011;10915;54.352;9.074;2022-11-15T08:32:51;77.77;;;49.87;;
21507;SDS011;10915;54.352;9.074;2022-11-15T08:35:18;69.47;;;47.77;;
21507;SDS011;10915;54.352;9.074;2022-11-15T08:37:45;79.03;;;50.10;;
21507;SDS011;10915;54.352;9.074;2022-11-15T08:40:11;72.93;;;47.73;;
21507;SDS011;10915;54.352;9.074;2022-11-15T08:42:37;65.73;;;46.37;;
21507;SDS011;10915;54.352;9.074;2022-11-15T08:45:03;68.80;;;47.57;;
21507;SDS011;10915;54.352;9.074;2022-11-15T08:47:29;64.63;;;46.43;;
21507;SDS011;10915;54.352;9.074;2022-11-15T08:49:55;64.33;;;43.30;;
21507;SDS011;10915;54.352;9.074;2022-11-15T08:52:20;66.83;;;44.10;;
21507;SDS011;10915;54.352;9.074;2022-11-15T08:54:46;65.47;;;45.90;;
21507;SDS011;10915;54.352;9.074;2022-11-15T08:57:12;62.07;;;42.73;;
21507;SDS011;10915;54.352;9.074;2022-11-15T08:59:38;59.70;;;44.10;;
21507;SDS011;10915;54.352;9.074;2022-11-15T09:02:04;58.87;;;42.63;;
21507;SDS011;10915;54.352;9.074;2022-11-15T09:04:30;56.07;;;41.17;;
21507;SDS011;10915;54.352;9.074;2022-11-15T09:06:56;58.87;;;40.20;;
21507;SDS011;10915;54.352;9.074;2022-11-15T09:09:22;57.83;;;41.80;;
21507;SDS011;10915;54.352;9.074;2022-11-15T09:11:50;54.63;;;39.97;;
21507;SDS011;10915;54.352;9.074;2022-11-15T09:14:16;56.77;;;40.97;;
21507;SDS011;10915;54.352;9.074;2022-11-15T09:16:41;54.93;;;39.37;;
21507;SDS011;10915;54.352;9.074;2022-11-15T09:19:07;50.00;;;37.03;;
21507;SDS011;10915;54.352;9.074;2022-11-15T09:21:33;52.13;;;37.77;;
21507;SDS011;10915;54.352;9.074;2022-11-15T09:23:59;52.43;;;38.40;;
21507;SDS011;10915;54.352;9.074;2022-11-15T09:26:24;53.53;;;38.17;;
21507;SDS011;10915;54.352;9.074;2022-11-15T09:28:50;52.90;;;38.03;;
21507;SDS011;10915;54.352;9.074;2022-11-15T09:31:17;58.53;;;37.30;;
21507;SDS011;10915;54.352;9.074;2022-11-15T09:33:43;49.03;;;35.73;;
21507;SDS011;10915;54.352;9.074;2022-11-15T09:36:10;48.67;;;36.67;;
21507;SDS011;10915;54.352;9.074;2022-11-15T09:38:36;48.10;;;35.97;;
21507;SDS011;10915;54.352;9.074;2022-11-15T09:46:31;48.33;;;35.27;;
21507;SDS011;10915;54.352;9.074;2022-11-15T09:49:20;49.03;;;35.37;;
21507;SDS011;10915;54.352;9.074;2022-11-15T09:51:47;45.07;;;33.67;;
21507;SDS011;10915;54.352;9.074;2022-11-15T09:56:52;46.30;;;33.67;;
21507;SDS011;10915;54.352;9.074;2022-11-15T09:59:37;43.57;;;32.37;;
21507;SDS011;10915;54.352;9.074;2022-11-15T10:04:56;40.53;;;32.83;;
21507;SDS011;10915;54.352;9.074;2022-11-15T10:10:51;42.70;;;31.97;;
21507;SDS011;10915;54.352;9.074;2022-11-15T10:12:56;43.67;;;33.13;;
21507;SDS011;10915;54.352;9.074;2022-11-15T10:15:23;40.50;;;33.03;;
21507;SDS011;10915;54.352;9.074;2022-11-15T10:20:26;40.73;;;33.47;;
21507;SDS011;10915;54.352;9.074;2022-11-15T10:22:59;43.77;;;33.93;;
21507;SDS011;10915;54.352;9.074;2022-11-15T10:25:30;44.37;;;32.40;;
21507;SDS011;10915;54.352;9.074;2022-11-15T10:28:09;40.10;;;31.47;;
21507;SDS011;10915;54.352;9.074;2022-11-15T10:30:54;43.57;;;32.83;;
21507;SDS011;10915;54.352;9.074;2022-11-15T10:41:37;41.37;;;33.20;;
21507;SDS011;10915;54.352;9.074;2022-11-15T10:46:46;40.50;;;31.53;;
21507;SDS011;10915;54.352;9.074;2022-11-15T10:49:22;37.10;;;30.23;;
21507;SDS011;10915;54.352;9.074;2022-11-15T10:52:15;41.87;;;32.53;;
21507;SDS011;10915;54.352;9.074;2022-11-15T10:54:48;41.60;;;31.80;;
21507;SDS011;10915;54.352;9.074;2022-11-15T10:57:28;36.63;;;29.63;;
21507;SDS011;10915;54.352;9.074;2022-11-15T11:00:00;42.03;;;31.70;;
21507;SDS011;10915;54.352;9.074;2022-11-15T11:02:57;36.97;;;30.27;;
21507;SDS011;10915;54.352;9.074;2022-11-15T11:05:33;39.27;;;29.10;;
21507;SDS011;10915;54.352;9.074;2022-11-15T11:10:35;43.97;;;29.27;;
21507;SDS011;10915;54.352;9.074;2022-11-15T11:18:42;34.97;;;28.67;;
21507;SDS011;10915;54.352;9.074;2022-11-15T11:21:23;35.93;;;28.87;;
21507;SDS011;10915;54.352;9.074;2022-11-15T11:24:07;38.77;;;29.63;;
21507;SDS011;10915;54.352;9.074;2022-11-15T11:32:39;36.97;;;29.00;;
21507;SDS011;10915;54.352;9.074;2022-11-15T11:38:47;36.10;;;29.23;;
21507;SDS011;10915;54.352;9.074;2022-11-15T11:41:08;36.63;;;28.53;;
21507;SDS011;10915;54.352;9.074;2022-11-15T11:46:30;33.67;;;28.07;;
21507;SDS011;10915;54.352;9.074;2022-11-15T11:49:10;35.33;;;27.47;;
21507;SDS011;10915;54.352;9.074;2022-11-15T11:51:42;32.23;;;27.93;;
21507;SDS011;10915;54.352;9.074;2022-11-15T11:54:38;32.37;;;26.23;;
21507;SDS011;10915;54.352;9.074;2022-11-15T12:00:12;30.83;;;25.97;;
21507;SDS011;10915;54.352;9.074;2022-11-15T12:08:25;32.93;;;26.40;;
21507;SDS011;10915;54.352;9.074;2022-11-15T12:17:08;31.13;;;24.63;;
21507;SDS011;10915;54.352;9.074;2022-11-15T12:19:36;29.37;;;25.03;;
21507;SDS011;10915;54.352;9.074;2022-11-15T12:22:09;30.00;;;24.37;;
21507;SDS011;10915;54.352;9.074;2022-11-15T12:27:10;29.03;;;23.80;;
21507;SDS011;10915;54.352;9.074;2022-11-15T12:29:45;28.53;;;24.63;;
21507;SDS011;10915;54.352;9.074;2022-11-15T12:32:35;30.17;;;24.37;;
21507;SDS011;10915;54.352;9.074;2022-11-15T12:35:03;28.83;;;25.07;;
21507;SDS011;10915;54.352;9.074;2022-11-15T12:45:49;29.83;;;22.87;;
21507;SDS011;10915;54.352;9.074;2022-11-15T12:53:37;29.07;;;21.83;;
21507;SDS011;10915;54.352;9.074;2022-11-15T12:58:43;26.80;;;21.83;;
21507;SDS011;10915;54.352;9.074;2022-11-15T13:01:10;28.40;;;22.07;;
21507;SDS011;10915;54.352;9.074;2022-11-15T13:04:13;30.37;;;21.50;;
21507;SDS011;10915;54.352;9.074;2022-11-15T13:12:00;30.97;;;22.27;;
21507;SDS011;10915;54.352;9.074;2022-11-15T13:17:16;26.10;;;20.57;;
21507;SDS011;10915;54.352;9.074;2022-11-15T13:19:45;26.63;;;21.60;;
21507;SDS011;10915;54.352;9.074;2022-11-15T13:22:13;25.60;;;20.63;;
21507;SDS011;10915;54.352;9.074;2022-11-15T13:24:57;27.67;;;21.90;;
21507;SDS011;10915;54.352;9.074;2022-11-15T13:27:25;26.33;;;20.33;;
21507;SDS011;10915;54.352;9.074;2022-11-15T13:29:52;27.70;;;20.83;;
21507;SDS011;10915;54.352;9.074;2022-11-15T13:32:18;27.83;;;21.33;;
21507;SDS011;10915;54.352;9.074;2022-11-15T13:34:45;27.57;;;20.17;;
21507;SDS011;10915;54.352;9.074;2022-11-15T13:39:45;27.90;;;20.90;;
21507;SDS011;10915;54.352;9.074;2022-11-15T13:42:15;25.17;;;19.53;;
21507;SDS011;10915;54.352;9.074;2022-11-15T13:44:54;25.80;;;20.43;;
21507;SDS011;10915;54.352;9.074;2022-11-15T13:47:30;29.77;;;20.37;;
21507;SDS011;10915;54.352;9.074;2022-11-15T16:25:22;23.53;;;19.07;;
21507;SDS011;10915;54.352;9.074;2022-11-15T18:26:02;29.63;;;21.87;;
21507;SDS011;10915;54.352;9.074;2022-11-15T18:28:30;27.80;;;22.83;;
21507;SDS011;10915;54.352;9.074;2022-11-15T18:30:58;28.67;;;22.67;;
21507;SDS011;10915;54.352;9.074;2022-11-15T18:33:25;29.13;;;23.23;;
21507;SDS011;10915;54.352;9.074;2022-11-15T18:36:01;29.27;;;22.93;;
21507;SDS011;10915;54.352;9.074;2022-11-15T18:38:31;29.20;;;23.63;;
21507;SDS011;10915;54.352;9.074;2022-11-15T18:41:03;29.93;;;24.43;;
21507;SDS011;10915;54.352;9.074;2022-11-15T18:43:41;32.47;;;23.57;;
21507;SDS011;10915;54.352;9.074;2022-11-15T18:46:09;29.80;;;24.50;;
21507;SDS011;10915;54.352;9.074;2022-11-15T18:48:37;27.83;;;23.87;;
21507;SDS011;10915;54.352;9.074;2022-11-15T18:51:08;31.20;;;24.40;;
21507;SDS011;10915;54.352;9.074;2022-11-15T18:53:35;29.90;;;24.07;;
21507;SDS011;10915;54.352;9.074;2022-11-15T18:56:12;28.03;;;23.93;;
21507;SDS011;10915;54.352;9.074;2022-11-15T18:58:41;27.97;;;23.37;;
21507;SDS011;10915;54.352;9.074;2022-11-15T19:01:20;28.60;;;25.33;;
21507;SDS011;10915;54.352;9.074;2022-11-15T19:03:50;33.40;;;25.23;;
21507;SDS011;10915;54.352;9.074;2022-11-15T19:08:48;33.90;;;25.70;;
21507;SDS011;10915;54.352;9.074;2022-11-15T19:11:19;31.23;;;25.00;;
21507;SDS011;10915;54.352;9.074;2022-11-15T19:13:51;32.83;;;25.57;;
21507;SDS011;10915;54.352;9.074;2022-11-15T19:16:19;30.90;;;25.00;;
21507;SDS011;10915;54.352;9.074;2022-11-15T19:18:45;31.57;;;25.83;;
21507;SDS011;10915;54.352;9.074;2022-11-15T19:21:11;36.27;;;26.73;;
21507;SDS011;10915;54.352;9.074;2022-11-15T19:23:42;30.37;;;25.63;;
21507;SDS011;10915;54.352;9.074;2022-11-15T19:26:11;31.13;;;24.73;;
21507;SDS011;10915;54.352;9.074;2022-11-15T19:28:39;32.47;;;26.10;;
21507;SDS011;10915;54.352;9.074;2022-11-15T19:31:12;30.13;;;24.73;;
21507;SDS011;10915;54.352;9.074;2022-11-15T19:33:39;32.03;;;24.80;;
21507;SDS011;10915;54.352;9.074;2022-11-15T19:36:13;32.77;;;26.13;;
21507;SDS011;10915;54.352;9.074;2022-11-15T19:38:41;35.03;;;26.33;;
21507;SDS011;10915;54.352;9.074;2022-11-15T19:41:09;33.53;;;26.80;;
21507;SDS011;10915;54.352;9.074;2022-11-15T19:43:38;32.77;;;26.27;;
21507;SDS011;10915;54.352;9.074;2022-11-15T19:46:04;33.53;;;26.57;;
21507;SDS011;10915;54.352;9.074;2022-11-15T19:48:31;36.30;;;26.77;;
21507;SDS011;10915;54.352;9.074;2022-11-15T19:51:17;35.73;;;26.83;;
21507;SDS011;10915;54.352;9.074;2022-11-15T19:53:48;35.73;;;27.30;;
21507;SDS011;10915;54.352;9.074;2022-11-15T19:56:17;37.50;;;27.27;;
21507;SDS011;10915;54.352;9.074;2022-11-15T19:58:43;36.67;;;28.27;;
21507;SDS011;10915;54.352;9.074;2022-11-15T20:01:20;37.00;;;28.47;;
21507;SDS011;10915;54.352;9.074;2022-11-15T20:03:55;35.73;;;28.67;;
21507;SDS011;10915;54.352;9.074;2022-11-15T20:06:24;34.30;;;27.57;;
21507;SDS011;10915;54.352;9.074;2022-11-15T20:08:58;32.87;;;27.30;;
21507;SDS011;10915;54.352;9.074;2022-11-15T20:11:24;37.33;;;27.93;;
21507;SDS011;10915;54.352;9.074;2022-11-15T20:13:50;35.10;;;28.07;;
21507;SDS011;10915;54.352;9.074;2022-11-15T20:16:20;35.33;;;28.20;;
21507;SDS011;10915;54.352;9.074;2022-11-15T20:18:47;36.60;;;27.97;;
21507;SDS011;10915;54.352;9.074;2022-11-15T20:21:14;36.03;;;28.80;;
21507;SDS011;10915;54.352;9.074;2022-11-15T20:23:40;35.70;;;28.70;;
21507;SDS011;10915;54.352;9.074;2022-11-15T20:26:07;35.30;;;28.60;;
21507;SDS011;10915;54.352;9.074;2022-11-15T20:28:35;37.50;;;28.63;;
21507;SDS011;10915;54.352;9.074;2022-11-15T20:31:01;37.83;;;29.20;;
21507;SDS011;10915;54.352;9.074;2022-11-15T20:33:27;38.00;;;29.90;;
21507;SDS011;10915;54.352;9.074;2022-11-15T20:35:53;37.00;;;28.70;;
21507;SDS011;10915;54.352;9.074;2022-11-15T20:38:19;38.47;;;29.13;;
21507;SDS011;10915;54.352;9.074;2022-11-15T20:40:45;34.83;;;28.73;;
21507;SDS011;10915;54.352;9.074;2022-11-15T20:43:13;36.10;;;28.53;;
21507;SDS011;10915;54.352;9.074;2022-11-15T20:45:42;36.30;;;29.37;;
21507;SDS011;10915;54.352;9.074;2022-11-15T20:48:09;38.90;;;29.97;;
21507;SDS011;10915;54.352;9.074;2022-11-15T20:50:37;37.97;;;30.27;;
21507;SDS011;10915;54.352;9.074;2022-11-15T20:53:04;40.50;;;31.13;;
21507;SDS011;10915;54.352;9.074;2022-11-15T20:55:30;37.70;;;29.00;;
21507;SDS011;10915;54.352;9.074;2022-11-15T20:57:55;39.73;;;31.53;;
21507;SDS011;10915;54.352;9.074;2022-11-15T21:00:21;42.03;;;31.90;;
21507;SDS011;10915;54.352;9.074;2022-11-15T21:02:49;38.47;;;30.43;;
21507;SDS011;10915;54.352;9.074;2022-11-15T21:05:16;37.93;;;31.03;;
21507;SDS011;10915;54.352;9.074;2022-11-15T21:07:42;39.93;;;31.40;;
21507;SDS011;10915;54.352;9.074;2022-11-15T21:10:08;41.37;;;31.70;;
21507;SDS011;10915;54.352;9.074;2022-11-15T21:13:03;41.67;;;30.97;;
21507;SDS011;10915;54.352;9.074;2022-11-15T21:15:31;40.10;;;31.93;;
21507;SDS011;10915;54.352;9.074;2022-11-15T21:17:57;40.80;;;31.73;;
21507;SDS011;10915;54.352;9.074;2022-11-15T21:20:23;39.03;;;31.33;;
21507;SDS011;10915;54.352;9.074;2022-11-15T21:22:49;42.13;;;32.50;;
21507;SDS011;10915;54.352;9.074;2022-11-15T21:25:15;38.63;;;31.30;;
21507;SDS011;10915;54.352;9.074;2022-11-15T21:27:40;43.73;;;31.60;;
21507;SDS011;10915;54.352;9.074;2022-11-15T21:30:06;38.13;;;30.30;;
21507;SDS011;10915;54.352;9.074;2022-11-15T21:32:32;37.00;;;31.03;;
21507;SDS011;10915;54.352;9.074;2022-11-15T21:34:58;40.53;;;31.93;;
21507;SDS011;10915;54.352;9.074;2022-11-15T21:37:24;37.80;;;31.27;;
21507;SDS011;10915;54.352;9.074;2022-11-15T21:39:49;39.10;;;31.97;;
21507;SDS011;10915;54.352;9.074;2022-11-15T21:42:15;38.23;;;30.43;;
21507;SDS011;10915;54.352;9.074;2022-11-15T21:44:41;37.23;;;31.87;;
21507;SDS011;10915;54.352;9.074;2022-11-15T21:47:06;37.70;;;30.90;;
21507;SDS011;10915;54.352;9.074;2022-11-15T21:49:32;38.30;;;31.37;;
21507;SDS011;10915;54.352;9.074;2022-11-15T21:51:58;36.40;;;31.83;;
21507;SDS011;10915;54.352;9.074;2022-11-15T21:54:24;36.13;;;30.53;;
21507;SDS011;10915;54.352;9.074;2022-11-15T21:56:49;39.03;;;31.30;;
21507;SDS011;10915;54.352;9.074;2022-11-15T21:59:15;37.47;;;32.00;;
21507;SDS011;10915;54.352;9.074;2022-11-15T22:01:41;39.80;;;31.80;;
21507;SDS011;10915;54.352;9.074;2022-11-15T22:04:25;41.77;;;32.80;;
21507;SDS011;10915;54.352;9.074;2022-11-15T22:06:51;38.50;;;31.40;;
21507;SDS011;10915;54.352;9.074;2022-11-15T22:09:16;37.43;;;31.40;;
21507;SDS011;10915;54.352;9.074;2022-11-15T22:11:42;34.80;;;30.20;;
21507;SDS011;10915;54.352;9.074;2022-11-15T22:14:08;37.97;;;30.20;;
21507;SDS011;10915;54.352;9.074;2022-11-15T22:16:33;38.60;;;31.80;;
21507;SDS011;10915;54.352;9.074;2022-11-15T22:19:00;39.63;;;31.77;;
21507;SDS011;10915;54.352;9.074;2022-11-15T22:21:26;35.40;;;30.03;;
21507;SDS011;10915;54.352;9.074;2022-11-15T22:23:51;35.93;;;30.17;;
21507;SDS011;10915;54.352;9.074;2022-11-15T22:26:18;34.97;;;29.73;;
21507;SDS011;10915;54.352;9.074;2022-11-15T22:28:44;37.77;;;30.63;;
21507;SDS011;10915;54.352;9.074;2022-11-15T22:31:10;38.97;;;30.73;;
21507;SDS011;10915;54.352;9.074;2022-11-15T22:33:36;37.87;;;29.57;;
21507;SDS011;10915;54.352;9.074;2022-11-15T22:36:03;34.77;;;30.20;;
21507;SDS011;10915;54.352;9.074;2022-11-15T22:38:32;34.87;;;29.97;;
21507;SDS011;10915;54.352;9.074;2022-11-15T22:41:04;34.33;;;29.20;;
21507;SDS011;10915;54.352;9.074;2022-11-15T22:43:30;35.57;;;29.23;;
21507;SDS011;10915;54.352;9.074;2022-11-15T22:45:57;36.73;;;29.40;;
21507;SDS011;10915;54.352;9.074;2022-11-15T22:48:31;36.10;;;29.90;;
21507;SDS011;10915;54.352;9.074;2022-11-15T22:50:58;36.70;;;30.00;;
21507;SDS011;10915;54.352;9.074;2022-11-15T22:53:25;39.87;;;31.43;;
21507;SDS011;10915;54.352;9.074;2022-11-15T22:55:52;36.03;;;29.07;;
21507;SDS011;10915;54.352;9.074;2022-11-15T22:58:20;35.33;;;29.50;;
21507;SDS011;10915;54.352;9.074;2022-11-15T23:00:47;38.57;;;30.43;;
21507;SDS011;10915;54.352;9.074;2022-11-15T23:03:14;39.17;;;29.53;;
21507;SDS011;10915;54.352;9.074;2022-11-15T23:05:40;37.43;;;29.87;;
21507;SDS011;10915;54.352;9.074;2022-11-15T23:08:06;36.77;;;30.33;;
21507;SDS011;10915;54.352;9.074;2022-11-15T23:10:31;38.73;;;31.57;;
21507;SDS011;10915;54.352;9.074;2022-11-15T23:13:16;36.90;;;29.43;;
21507;SDS011;10915;54.352;9.074;2022-11-15T23:15:42;39.77;;;30.43;;
21507;SDS011;10915;54.352;9.074;2022-11-15T23:18:35;36.53;;;30.33;;
21507;SDS011;10915;54.352;9.074;2022-11-15T23:21:09;38.40;;;30.73;;
21507;SDS011;10915;54.352;9.074;2022-11-15T23:23:39;38.10;;;30.77;;
21507;SDS011;10915;54.352;9.074;2022-11-15T23:26:05;38.70;;;30.67;;
21507;SDS011;10915;54.352;9.074;2022-11-15T23:28:31;42.73;;;32.93;;
21507;SDS011;10915;54.352;9.074;2022-11-15T23:31:05;36.87;;;30.13;;
21507;SDS011;10915;54.352;9.074;2022-11-15T23:33:50;39.93;;;32.40;;
21507;SDS011;10915;54.352;9.074;2022-11-15T23:36:22;38.90;;;32.20;;
21507;SDS011;10915;54.352;9.074;2022-11-15T23:38:48;38.20;;;31.17;;
21507;SDS011;10915;54.352;9.074;2022-11-15T23:41:14;42.23;;;33.10;;
21507;SDS011;10915;54.352;9.074;2022-11-15T23:43:40;41.37;;;32.93;;
21507;SDS011;10915;54.352;9.074;2022-11-15T23:46:06;42.70;;;33.30;;
21507;SDS011;10915;54.352;9.074;2022-11-15T23:48:32;43.00;;;34.17;;
21507;SDS011;10915;54.352;9.074;2022-11-15T23:50:57;45.07;;;35.20;;
21507;SDS011;10915;54.352;9.074;2022-11-15T23:53:23;49.67;;;35.60;;
21507;SDS011;10915;54.352;9.074;2022-11-15T23:55:53;48.27;;;36.00;;
21507;SDS011;10915;54.352;9.074;2022-11-15T23:58:21;44.10;;;35.10;;
